createdAt,value
2022-12-27T08:35:52.755Z,67.85
2022-12-27T08:38:20.340Z,66.68
2022-12-27T08:40:47.235Z,65.82
2022-12-27T08:43:14.644Z,68.65
2022-12-27T08:45:41.980Z,68.45
2022-12-27T08:48:09.475Z,69.07
2022-12-27T08:50:36.393Z,69.75
2022-12-27T08:53:04.796Z,71.93
2022-12-27T08:55:32.635Z,71.18
2022-12-27T08:58:13.798Z,70.28
2022-12-27T09:00:42.792Z,62.50
2022-12-27T09:03:10.631Z,57.85
2022-12-27T09:05:41.684Z,58.88
2022-12-27T09:08:09.881Z,58.72
2022-12-27T09:10:37.089Z,58.97
2022-12-27T09:13:04.303Z,59.53
2022-12-27T09:15:31.383Z,55.78
2022-12-27T09:17:58.366Z,57.15
2022-12-27T09:20:25.196Z,56.35
2022-12-27T09:22:52.181Z,56.40
2022-12-27T09:25:19.309Z,57.17
2022-12-27T09:27:46.267Z,57.05
2022-12-27T09:30:13.412Z,58.05
2022-12-27T09:32:40.249Z,61.53
2022-12-27T09:35:08.549Z,59.67
2022-12-27T09:37:35.424Z,61.20
2022-12-27T09:40:02.274Z,61.60
2022-12-27T09:43:08.035Z,62.95
2022-12-27T09:45:51.493Z,61.08
2022-12-27T09:48:33.462Z,64.15
2022-12-27T09:51:19.755Z,67.78
2022-12-27T09:54:04.971Z,65.05
2022-12-27T09:56:54.501Z,63.33
2022-12-27T09:59:31.877Z,64.55
2022-12-27T10:01:59.458Z,64.35
2022-12-27T10:05:10.042Z,65.47
2022-12-27T10:08:00.462Z,65.55
2022-12-27T10:10:33.127Z,68.55
2022-12-27T10:16:02.705Z,65.97
2022-12-27T10:18:59.605Z,69.15
2022-12-27T10:21:29.493Z,68.63
2022-12-27T10:24:16.052Z,67.28
2022-12-27T10:26:43.306Z,66.82
2022-12-27T10:29:20.649Z,67.75
2022-12-27T10:31:47.734Z,65.22
2022-12-27T10:34:16.881Z,67.18
2022-12-27T10:36:45.422Z,67.15
2022-12-27T10:39:34.921Z,70.03
2022-12-27T10:42:41.879Z,66.80
2022-12-27T10:45:33.441Z,71.30
2022-12-27T10:48:20.870Z,66.10
2022-12-27T10:50:50.519Z,65.88
2022-12-27T10:53:36.662Z,65.55
2022-12-27T10:56:28.825Z,58.47
2022-12-27T10:59:11.546Z,58.10
2022-12-27T11:01:38.596Z,58.50
2022-12-27T11:04:21.534Z,57.40
2022-12-27T11:07:13.022Z,54.78
2022-12-27T11:09:50.180Z,54.85
2022-12-27T11:12:30.734Z,57.15
2022-12-27T11:15:19.600Z,55.50
2022-12-27T11:18:11.071Z,56.00
2022-12-27T11:20:40.904Z,54.92
2022-12-27T11:23:10.672Z,56.65
2022-12-27T11:25:46.620Z,58.10
2022-12-27T11:28:38.444Z,60.95
2022-12-27T11:31:15.137Z,59.85
2022-12-27T11:33:50.431Z,59.83
2022-12-27T11:36:40.685Z,62.13
2022-12-27T11:39:14.035Z,61.88
2022-12-27T11:41:52.077Z,58.78
2022-12-27T11:44:33.460Z,59.45
2022-12-27T11:47:11.289Z,60.55
2022-12-27T11:49:55.849Z,57.67
2022-12-27T11:53:04.484Z,62.40
2022-12-27T11:56:00.020Z,61.50
2022-12-27T11:59:05.050Z,65.50
2022-12-27T12:02:05.111Z,60.17
2022-12-27T12:04:50.555Z,56.58
2022-12-27T12:07:32.087Z,60.47
2022-12-27T12:10:20.411Z,55.42
2022-12-27T12:12:58.891Z,60.10
2022-12-27T12:16:11.592Z,64.47
2022-12-27T12:19:02.328Z,61.60
2022-12-27T12:21:48.066Z,65.95
2022-12-27T12:24:40.809Z,61.03
2022-12-27T12:27:29.365Z,63.83
2022-12-27T12:30:14.845Z,63.08
2022-12-27T12:33:20.480Z,63.85
2022-12-27T12:36:16.401Z,65.20
2022-12-27T12:38:53.536Z,67.28
2022-12-27T12:41:30.211Z,68.10
2022-12-27T12:44:41.273Z,65.85
2022-12-27T12:47:11.426Z,68.32
2022-12-27T12:50:11.356Z,67.68
2022-12-27T12:52:58.997Z,65.13
2022-12-27T12:55:38.177Z,66.90
2022-12-27T12:58:43.491Z,65.53
2022-12-27T13:01:35.286Z,66.10
2022-12-27T13:04:18.827Z,66.63
2022-12-27T13:06:57.369Z,70.82
2022-12-27T13:09:33.963Z,68.05
2022-12-27T13:12:39.319Z,68.13
2022-12-27T13:15:24.709Z,64.15
2022-12-27T13:18:02.632Z,68.50
2022-12-27T13:20:53.461Z,65.70
2022-12-27T13:23:48.433Z,68.38
2022-12-27T13:26:25.571Z,65.80
2022-12-27T13:29:06.728Z,70.60
2022-12-27T13:31:36.367Z,69.75
2022-12-27T13:34:21.308Z,68.72
2022-12-27T13:37:17.427Z,65.10
2022-12-27T13:40:03.084Z,68.65
2022-12-27T13:43:05.829Z,71.15
2022-12-27T13:45:46.563Z,70.80
2022-12-27T13:48:39.747Z,72.78
2022-12-27T13:51:18.280Z,71.60
2022-12-27T13:53:51.695Z,74.43
2022-12-27T13:59:34.965Z,74.45
2022-12-27T14:02:26.612Z,73.50
2022-12-27T14:05:02.510Z,76.90
2022-12-27T14:08:06.847Z,73.63
2022-12-27T14:11:00.769Z,70.15
2022-12-27T14:13:41.562Z,75.35
2022-12-27T14:16:32.931Z,71.78
2022-12-27T14:19:21.435Z,74.40
2022-12-27T14:22:17.230Z,75.00
2022-12-27T14:24:52.972Z,76.93
2022-12-27T14:27:56.657Z,73.20
2022-12-27T14:30:56.183Z,70.38
2022-12-27T14:33:43.892Z,73.20
2022-12-27T14:36:52.512Z,73.40
2022-12-27T14:39:40.745Z,70.55
2022-12-27T14:42:36.537Z,75.85
2022-12-27T14:45:22.159Z,72.80
2022-12-27T14:48:16.297Z,72.68
2022-12-27T14:51:49.974Z,70.07
2022-12-27T14:54:16.078Z,73.18
2022-12-27T14:56:54.613Z,74.53
2022-12-27T14:59:28.914Z,73.82
2022-12-27T15:02:28.127Z,74.95
2022-12-27T15:05:25.954Z,75.65
2022-12-27T15:08:19.680Z,69.70
2022-12-27T15:11:04.594Z,71.38
2022-12-27T15:14:02.956Z,74.35
2022-12-27T15:17:04.503Z,70.80
2022-12-27T15:19:40.264Z,70.82
2022-12-27T15:22:31.843Z,74.63
2022-12-27T15:25:27.670Z,71.30
2022-12-27T15:28:12.184Z,75.25
2022-12-27T15:31:07.709Z,69.57
2022-12-27T15:33:39.977Z,69.80
2022-12-27T15:36:17.551Z,70.65
2022-12-27T15:38:54.599Z,67.80
2022-12-27T15:41:35.195Z,69.90
2022-12-27T15:44:07.554Z,67.22
2022-12-27T15:46:56.030Z,72.63
2022-12-27T15:49:50.683Z,68.47
2022-12-27T15:52:23.467Z,70.32
2022-12-27T15:55:19.133Z,67.82
2022-12-27T15:57:51.961Z,68.30
2022-12-27T16:00:33.572Z,70.35
2022-12-27T16:03:37.597Z,74.60
2022-12-27T16:08:35.260Z,68.50
2022-12-27T16:11:12.763Z,69.95
2022-12-27T16:13:42.698Z,71.40
2022-12-27T16:16:32.591Z,69.03
2022-12-27T16:18:59.514Z,68.63
2022-12-27T16:21:37.792Z,67.22
2022-12-27T16:24:11.437Z,68.28
2022-12-27T16:26:51.806Z,68.72
2022-12-27T16:29:20.523Z,64.95
2022-12-27T16:31:51.697Z,66.28
2022-12-27T16:34:25.002Z,65.05
2022-12-27T16:36:54.000Z,70.07
2022-12-27T16:39:49.841Z,68.22
2022-12-27T16:42:49.506Z,65.75
2022-12-27T16:45:34.748Z,68.78
2022-12-27T16:48:39.118Z,70.60
2022-12-27T16:51:27.486Z,66.57
2022-12-27T16:53:54.354Z,68.15
2022-12-27T16:56:27.796Z,74.07
2022-12-27T16:58:54.647Z,69.63
2022-12-27T17:01:50.469Z,69.32
2022-12-27T17:04:49.476Z,75.05
2022-12-27T17:07:41.406Z,74.53
2022-12-27T17:10:34.918Z,76.25
2022-12-27T17:13:15.425Z,81.82
2022-12-27T17:16:07.955Z,84.93
2022-12-27T17:18:37.311Z,83.63
2022-12-27T17:21:14.226Z,79.53
2022-12-27T17:23:43.581Z,76.40
2022-12-27T17:26:28.972Z,73.78
2022-12-27T17:29:03.147Z,73.13
2022-12-27T17:31:45.533Z,71.05
2022-12-27T17:34:28.254Z,72.97
2022-12-27T17:40:00.219Z,73.22
2022-12-27T17:42:55.769Z,74.60
2022-12-27T17:45:38.239Z,76.63
2022-12-27T17:48:29.828Z,73.25
2022-12-27T17:51:05.260Z,69.50
2022-12-27T17:53:50.570Z,67.18
2022-12-27T17:56:39.758Z,64.25
2022-12-27T17:59:10.840Z,62.17
2022-12-27T18:01:48.581Z,67.00
2022-12-27T18:04:40.550Z,70.80
2022-12-27T18:07:12.846Z,73.20
2022-12-27T18:09:49.979Z,68.47
2022-12-27T18:12:25.568Z,64.47
2022-12-27T18:15:14.309Z,70.93
2022-12-27T18:17:51.529Z,66.13
2022-12-27T18:20:27.743Z,59.70
2022-12-27T18:23:00.661Z,60.58
2022-12-27T18:25:33.769Z,58.42
2022-12-27T18:28:06.645Z,62.80
2022-12-27T18:30:47.117Z,55.55
2022-12-27T18:33:16.238Z,62.78
2022-12-27T18:35:49.393Z,66.63
2022-12-27T18:38:47.781Z,69.97
2022-12-27T18:41:21.397Z,68.93
2022-12-27T18:43:59.674Z,67.18
2022-12-27T18:46:31.232Z,62.85
2022-12-27T18:48:58.772Z,67.30
2022-12-27T18:51:38.027Z,65.80
2022-12-27T18:54:43.597Z,69.93
2022-12-27T18:57:35.119Z,74.07
2022-12-27T19:00:25.751Z,72.40
2022-12-27T19:02:54.405Z,69.57
2022-12-27T19:05:21.165Z,67.40
2022-12-27T19:08:02.076Z,66.63
2022-12-27T19:10:30.739Z,63.67
2022-12-27T19:12:57.986Z,67.90
2022-12-27T19:15:36.059Z,70.95
2022-12-27T19:18:06.677Z,69.75
2022-12-27T19:20:35.561Z,72.47
2022-12-27T19:23:05.905Z,71.85
2022-12-27T19:25:33.887Z,66.60
2022-12-27T19:28:09.287Z,63.53
2022-12-27T19:30:51.291Z,66.72
2022-12-27T19:33:28.460Z,67.03
2022-12-27T19:35:56.202Z,65.97
2022-12-27T19:38:31.765Z,61.10
2022-12-27T19:41:03.838Z,65.75
2022-12-27T19:43:37.907Z,65.88
2022-12-27T19:46:04.988Z,68.18
2022-12-27T19:48:31.788Z,69.45
2022-12-27T19:50:59.043Z,70.43
2022-12-27T19:53:43.071Z,71.05
2022-12-27T19:56:11.255Z,67.53
2022-12-27T19:58:38.239Z,63.38
2022-12-27T20:01:05.311Z,63.38
2022-12-27T20:03:32.187Z,63.65
2022-12-27T20:06:12.568Z,63.45
2022-12-27T20:08:48.355Z,144.85
2022-12-27T20:11:18.525Z,113.75
2022-12-27T20:13:45.782Z,87.28
2022-12-27T20:16:15.407Z,83.07
2022-12-27T20:18:43.206Z,78.35
2022-12-27T20:21:17.125Z,80.35
2022-12-27T20:23:44.565Z,77.03
2022-12-27T20:26:13.219Z,71.43
2022-12-27T20:28:43.072Z,66.53
2022-12-27T20:31:14.497Z,63.60
2022-12-27T20:33:41.949Z,67.40
2022-12-27T20:36:10.468Z,62.45
2022-12-27T20:38:43.963Z,59.25
2022-12-27T20:41:16.803Z,59.55
2022-12-27T20:43:44.124Z,56.38
2022-12-27T20:46:16.595Z,54.67
2022-12-27T20:48:45.685Z,60.30
2022-12-27T20:51:20.939Z,60.25
2022-12-27T20:53:49.254Z,57.33
2022-12-27T20:56:16.954Z,56.60
2022-12-27T20:58:43.901Z,58.05
2022-12-27T21:01:14.039Z,57.13
2022-12-27T21:03:41.298Z,51.10
2022-12-27T21:06:09.008Z,50.35
2022-12-27T21:08:44.579Z,50.70
2022-12-27T21:11:19.961Z,50.00
2022-12-27T21:13:48.091Z,55.90
2022-12-27T21:16:23.250Z,57.17
2022-12-27T21:18:52.529Z,55.47
2022-12-27T21:21:23.765Z,50.30
2022-12-27T21:23:53.725Z,48.90
2022-12-27T21:26:23.645Z,47.72
2022-12-27T21:28:51.220Z,49.08
2022-12-27T21:31:21.605Z,47.85
2022-12-27T21:33:48.927Z,50.28
2022-12-27T21:36:21.384Z,50.63
2022-12-27T21:38:48.959Z,52.17
2022-12-27T21:41:27.915Z,48.40
2022-12-27T21:43:54.897Z,47.55
2022-12-27T21:46:24.499Z,49.13
2022-12-27T21:48:57.179Z,51.55
2022-12-27T21:53:51.436Z,51.53
2022-12-27T21:56:18.813Z,52.40
2022-12-27T21:58:46.386Z,53.58
2022-12-27T22:01:25.023Z,52.15
2022-12-27T22:03:53.782Z,52.38
2022-12-27T22:06:30.328Z,46.65
2022-12-27T22:08:59.931Z,47.78
2022-12-27T22:11:28.093Z,51.65
2022-12-27T22:13:55.322Z,50.78
2022-12-27T22:16:30.969Z,48.17
2022-12-27T22:18:58.120Z,47.58
2022-12-27T22:21:30.891Z,48.72
2022-12-27T22:23:59.744Z,43.97
2022-12-27T22:26:32.580Z,43.55
